createdAt,value
2019-04-01T00:02:22.067Z,69.53
2019-04-01T00:04:50.449Z,69.39
2019-04-01T00:07:18.801Z,69.69
2019-04-01T00:09:47.180Z,69.54
2019-04-01T00:12:15.602Z,69.48
2019-04-01T00:14:43.980Z,69.58
2019-04-01T00:17:12.331Z,71.07
2019-04-01T00:19:40.677Z,69.93
2019-04-01T00:22:09.059Z,70.24
2019-04-01T00:24:37.476Z,70.64
2019-04-01T00:27:05.933Z,70.35
2019-04-01T00:29:34.286Z,70.11
2019-04-01T00:32:02.678Z,70.40
2019-04-01T00:34:31.027Z,70.27
2019-04-01T00:36:59.411Z,70.62
2019-04-01T00:39:27.761Z,70.00
2019-04-01T00:42:16.219Z,69.72
2019-04-01T00:44:44.568Z,69.78
2019-04-01T00:47:13.126Z,69.90
2019-04-01T00:49:41.470Z,70.18
2019-04-01T00:52:09.851Z,69.63
2019-04-01T00:54:38.204Z,70.01
2019-04-01T00:57:06.589Z,69.47
2019-04-01T00:59:34.943Z,69.50
2019-04-01T01:02:03.405Z,69.46
2019-04-01T01:04:31.751Z,70.43
2019-04-01T01:07:00.134Z,70.56
2019-04-01T01:09:28.482Z,70.18
2019-04-01T01:11:56.861Z,70.35
2019-04-01T01:14:25.277Z,70.66
2019-04-01T01:16:53.650Z,69.96
2019-04-01T01:19:22.006Z,70.06
2019-04-01T01:21:50.384Z,69.84
2019-04-01T01:24:18.734Z,69.99
2019-04-01T01:26:47.187Z,70.01
2019-04-01T01:29:15.548Z,70.37
2019-04-01T01:31:44.221Z,70.40
2019-04-01T01:34:13.240Z,70.27
2019-04-01T01:36:41.619Z,69.77
2019-04-01T01:39:09.973Z,71.28
2019-04-01T01:41:38.359Z,71.41
2019-04-01T01:44:06.709Z,70.35
2019-04-01T01:46:35.090Z,70.49
2019-04-01T01:49:03.442Z,70.02
2019-04-01T01:51:31.896Z,70.76
2019-04-01T01:54:00.255Z,70.27
2019-04-01T01:56:28.945Z,70.63
2019-04-01T01:58:59.220Z,71.27
2019-04-01T02:01:27.797Z,71.51
2019-04-01T02:03:56.245Z,71.60
2019-04-01T02:06:24.704Z,71.42
2019-04-01T02:08:53.159Z,71.36
2019-04-01T02:11:22.956Z,71.90
2019-04-01T02:13:51.344Z,71.38
2019-04-01T02:16:19.823Z,72.26
2019-04-01T02:18:48.341Z,70.98
2019-04-01T02:21:16.812Z,70.66
2019-04-01T02:23:46.998Z,70.42
2019-04-01T02:26:15.354Z,71.18
2019-04-01T02:28:43.804Z,70.89
2019-04-01T02:31:12.229Z,71.95
2019-04-01T02:33:40.611Z,71.57
2019-04-01T02:36:09.030Z,71.67
2019-04-01T02:38:37.414Z,70.79
2019-04-01T02:41:05.852Z,71.64
2019-04-01T02:43:34.229Z,70.84
2019-04-01T02:46:02.573Z,71.09
2019-04-01T02:48:30.957Z,71.13
2019-04-01T02:50:59.308Z,70.61
2019-04-01T02:53:27.683Z,71.41
2019-04-01T02:55:56.035Z,71.47
2019-04-01T02:58:24.411Z,71.73
2019-04-01T03:00:52.835Z,71.76
2019-04-01T03:03:21.226Z,72.90
2019-04-01T03:05:49.638Z,73.60
2019-04-01T03:08:18.015Z,72.92
2019-04-01T03:10:46.359Z,72.33
2019-04-01T03:13:14.737Z,72.14
2019-04-01T03:15:43.083Z,72.67
2019-04-01T03:18:11.459Z,73.24
2019-04-01T03:20:39.810Z,74.19
2019-04-01T03:23:08.258Z,73.66
2019-04-01T03:25:36.617Z,73.23
2019-04-01T03:28:05.217Z,73.01
2019-04-01T03:30:33.646Z,73.83
2019-04-01T03:33:02.002Z,74.07
2019-04-01T03:35:30.438Z,73.77
2019-04-01T03:37:58.777Z,73.01
2019-04-01T03:40:27.222Z,73.64
2019-04-01T03:42:55.561Z,73.88
2019-04-01T03:45:24.001Z,74.39
2019-04-01T03:47:52.349Z,74.29
2019-04-01T03:50:21.753Z,73.82
2019-04-01T03:52:50.345Z,73.98
2019-04-01T03:55:19.096Z,75.29
2019-04-01T03:57:47.436Z,74.40
2019-04-01T04:00:16.599Z,74.36
2019-04-01T04:02:44.934Z,74.50
2019-04-01T04:05:13.454Z,74.54
2019-04-01T04:07:41.875Z,74.00
2019-04-01T04:10:10.346Z,74.00
2019-04-01T04:12:38.673Z,75.13
2019-04-01T04:15:07.528Z,75.46
2019-04-01T04:17:36.137Z,75.21
2019-04-01T04:20:04.747Z,75.16
2019-04-01T04:22:33.337Z,75.52
2019-04-01T04:25:01.862Z,75.62
2019-04-01T04:27:30.394Z,77.91
2019-04-01T04:29:58.965Z,76.72
2019-04-01T04:32:27.281Z,76.36
2019-04-01T04:34:57.454Z,77.23
2019-04-01T04:37:25.798Z,76.68
2019-04-01T04:39:54.243Z,76.88
2019-04-01T04:42:22.583Z,75.43
2019-04-01T04:44:51.112Z,75.78
2019-04-01T04:47:19.845Z,76.10
2019-04-01T04:49:48.297Z,76.12
2019-04-01T04:52:16.958Z,76.75
2019-04-01T04:54:45.326Z,75.33
2019-04-01T04:57:13.679Z,75.44
2019-04-01T04:59:42.058Z,76.00
2019-04-01T05:02:10.536Z,75.14
2019-04-01T05:04:38.917Z,76.55
2019-04-01T05:07:07.264Z,76.18
2019-04-01T05:09:35.644Z,75.94
2019-04-01T05:12:03.995Z,75.58
2019-04-01T05:14:32.334Z,75.59
2019-04-01T05:17:00.809Z,76.00
2019-04-01T05:19:29.155Z,75.36
2019-04-01T05:21:58.602Z,75.06
2019-04-01T05:24:27.115Z,77.30
2019-04-01T05:26:55.935Z,77.71
2019-04-01T05:29:24.848Z,76.30
2019-04-01T05:31:55.175Z,75.52
2019-04-01T05:34:25.133Z,75.75
2019-04-01T05:36:53.581Z,76.60
2019-04-01T05:39:21.998Z,76.56
2019-04-01T05:41:50.371Z,75.79
2019-04-01T05:44:18.814Z,75.90
2019-04-01T05:46:47.315Z,75.65
2019-04-01T05:49:16.131Z,74.99
2019-04-01T05:51:44.644Z,74.81
2019-04-01T05:54:13.054Z,74.95
2019-04-01T05:56:41.437Z,74.31
2019-04-01T05:59:10.050Z,73.90
2019-04-01T06:01:40.347Z,73.95
2019-04-01T06:04:08.752Z,73.72
2019-04-01T06:06:37.464Z,74.27
2019-04-01T06:09:07.762Z,73.03
2019-04-01T06:11:36.873Z,72.71
2019-04-01T06:14:05.560Z,72.63
2019-04-01T06:16:34.010Z,74.41
2019-04-01T06:19:05.869Z,74.20
2019-04-01T06:21:32.805Z,73.67
2019-04-01T06:24:01.216Z,73.14
2019-04-01T06:26:29.585Z,72.80
2019-04-01T06:28:58.006Z,72.52
2019-04-01T06:31:26.380Z,73.39
2019-04-01T06:33:55.065Z,72.56
2019-04-01T06:36:23.515Z,71.52
2019-04-01T06:38:52.023Z,71.76
2019-04-01T06:41:20.700Z,71.12
2019-04-01T06:43:49.323Z,71.29
2019-04-01T06:46:17.776Z,71.41
2019-04-01T06:48:46.189Z,71.02
2019-04-01T06:51:14.568Z,71.49
2019-04-01T06:53:43.450Z,70.35
2019-04-01T06:56:11.875Z,70.46
2019-04-01T06:58:40.322Z,70.77
2019-04-01T07:01:10.389Z,70.91
2019-04-01T07:03:38.910Z,70.31
2019-04-01T07:06:10.080Z,70.16
2019-04-01T07:08:39.269Z,69.80
2019-04-01T07:11:08.468Z,69.76
2019-04-01T07:13:40.072Z,70.57
2019-04-01T07:16:15.454Z,69.85
2019-04-01T07:18:37.690Z,69.84
2019-04-01T07:21:06.103Z,70.25
2019-04-01T07:23:34.485Z,70.05
2019-04-01T07:26:02.903Z,70.14
2019-04-01T07:28:31.359Z,69.27
2019-04-01T07:30:59.782Z,69.42
2019-04-01T07:33:28.236Z,69.80
2019-04-01T07:35:56.585Z,69.50
2019-04-01T07:38:25.036Z,69.04
2019-04-01T07:40:53.557Z,69.10
2019-04-01T07:43:22.008Z,68.88
2019-04-01T07:45:50.632Z,68.63
2019-04-01T07:48:19.084Z,69.68
2019-04-01T07:50:47.777Z,69.90
2019-04-01T07:53:16.179Z,70.06
2019-04-01T07:55:44.898Z,69.25
2019-04-01T07:58:13.275Z,68.97
2019-04-01T08:00:41.628Z,68.82
2019-04-01T08:03:10.085Z,68.76
2019-04-01T08:05:38.503Z,68.92
2019-04-01T08:08:06.882Z,68.88
2019-04-01T08:10:35.307Z,69.23
2019-04-01T08:13:03.832Z,69.12
2019-04-01T08:15:32.524Z,68.17
2019-04-01T08:18:00.967Z,68.74
2019-04-01T08:20:29.386Z,68.74
2019-04-01T08:22:57.841Z,68.66
2019-04-01T08:25:26.188Z,68.27
2019-04-01T08:27:54.640Z,68.91
2019-04-01T08:30:23.132Z,68.24
2019-04-01T08:32:51.729Z,68.19
2019-04-01T08:35:20.077Z,68.20
2019-04-01T08:37:48.427Z,68.43
2019-04-01T08:40:16.943Z,68.64
2019-04-01T08:42:48.735Z,67.88
2019-04-01T08:45:15.552Z,68.71
2019-04-01T08:47:44.231Z,67.88
2019-04-01T08:50:13.062Z,68.01
2019-04-01T08:52:41.490Z,68.31
2019-04-01T08:55:10.008Z,68.08
2019-04-01T08:57:38.353Z,67.82
2019-04-01T09:00:07.739Z,67.98
2019-04-01T09:02:36.165Z,68.31
2019-04-01T09:05:05.421Z,68.17
2019-04-01T09:07:33.939Z,67.89
2019-04-01T09:10:02.527Z,67.36
2019-04-01T09:12:30.952Z,67.16
2019-04-01T09:15:00.399Z,66.65
2019-04-01T09:17:28.773Z,66.38
2019-04-01T09:19:57.151Z,66.88
2019-04-01T09:22:25.494Z,67.15
2019-04-01T09:24:53.877Z,67.55
2019-04-01T09:27:22.231Z,67.31
2019-04-01T09:29:50.617Z,67.29
2019-04-01T09:32:19.036Z,66.42
2019-04-01T09:34:47.414Z,66.26
2019-04-01T09:37:15.767Z,66.62
2019-04-01T09:39:44.220Z,65.99
2019-04-01T09:42:12.636Z,66.34
2019-04-01T09:44:41.012Z,66.74
2019-04-01T09:47:09.364Z,65.65
2019-04-01T09:49:37.749Z,66.22
2019-04-01T09:52:06.172Z,65.91
2019-04-01T09:54:34.556Z,66.17
2019-04-01T09:57:16.727Z,65.39
2019-04-01T09:59:33.014Z,65.80
2019-04-01T10:02:01.430Z,65.64
2019-04-01T10:04:29.953Z,65.63
2019-04-01T10:06:58.294Z,65.95
2019-04-01T10:09:26.687Z,65.29
2019-04-01T10:11:55.039Z,65.43
2019-04-01T10:14:23.390Z,65.33
2019-04-01T10:16:52.046Z,65.56
2019-04-01T10:19:20.751Z,65.09
2019-04-01T10:21:49.365Z,64.98
2019-04-01T10:24:17.726Z,64.78
2019-04-01T10:26:46.100Z,64.70
2019-04-01T10:29:14.446Z,64.75
2019-04-01T10:31:42.905Z,65.15
2019-04-01T10:34:11.393Z,65.59
2019-04-01T10:36:39.772Z,63.93
2019-04-01T10:39:08.180Z,64.68
2019-04-01T10:41:36.559Z,65.45
2019-04-01T10:44:05.093Z,64.93
2019-04-01T10:46:33.474Z,64.70
2019-04-01T10:49:01.846Z,65.60
2019-04-01T10:51:30.261Z,64.35
2019-04-01T10:53:58.610Z,64.23
2019-04-01T10:56:26.981Z,63.63
2019-04-01T10:58:55.447Z,63.34
2019-04-01T11:01:23.904Z,63.52
2019-04-01T11:03:52.324Z,64.17
2019-04-01T11:06:20.970Z,63.72
2019-04-01T11:08:49.344Z,63.85
2019-04-01T11:11:17.858Z,62.98
2019-04-01T11:13:46.216Z,63.26
2019-04-01T11:16:14.660Z,63.58
2019-04-01T11:18:43.024Z,62.66
2019-04-01T11:21:11.470Z,62.08
2019-04-01T11:23:39.894Z,62.50
2019-04-01T11:26:08.282Z,63.20
2019-04-01T11:28:36.641Z,62.50
2019-04-01T11:31:05.091Z,63.37
2019-04-01T11:33:33.616Z,62.11
2019-04-01T11:36:01.991Z,63.55
2019-04-01T11:38:30.358Z,62.05
2019-04-01T11:40:58.940Z,62.04
2019-04-01T11:43:27.297Z,63.91
2019-04-01T11:45:55.825Z,62.18
2019-04-01T11:48:24.248Z,62.91
2019-04-01T11:50:53.807Z,62.28
2019-04-01T11:53:22.621Z,63.39
2019-04-01T11:55:51.084Z,64.40
2019-04-01T11:58:19.515Z,63.12
2019-04-01T12:00:48.584Z,63.28
2019-04-01T12:03:17.047Z,61.41
2019-04-01T12:05:45.577Z,62.77
2019-04-01T12:08:14.042Z,60.86
2019-04-01T12:10:42.663Z,60.05
2019-04-01T12:13:11.055Z,60.58
2019-04-01T12:15:39.789Z,59.94
2019-04-01T12:18:08.179Z,60.19
2019-04-01T12:20:37.494Z,60.49
2019-04-01T12:23:06.739Z,61.70
2019-04-01T12:25:35.164Z,61.82
2019-04-01T12:28:03.849Z,61.31
2019-04-01T12:30:32.202Z,60.79
2019-04-01T12:33:00.959Z,59.99
2019-04-01T12:35:29.385Z,60.62
2019-04-01T12:37:57.936Z,61.75
2019-04-01T12:40:26.921Z,60.99
2019-04-01T12:42:55.442Z,60.93
2019-04-01T12:45:24.569Z,60.29
2019-04-01T12:47:52.953Z,59.51
2019-04-01T12:50:21.373Z,59.46
2019-04-01T12:52:49.756Z,60.85
2019-04-01T12:55:18.238Z,59.45
2019-04-01T12:57:48.524Z,59.17
2019-04-01T13:00:17.011Z,59.79
2019-04-01T13:02:45.459Z,60.44
2019-04-01T13:05:14.049Z,59.78
2019-04-01T13:07:42.529Z,60.41
2019-04-01T13:10:10.919Z,58.18
2019-04-01T13:12:39.314Z,58.70
2019-04-01T13:15:08.308Z,58.58
2019-04-01T13:17:36.688Z,57.98
2019-04-01T13:20:06.278Z,58.48
2019-04-01T13:22:34.625Z,58.41
2019-04-01T13:25:05.661Z,58.90
2019-04-01T13:27:33.157Z,58.27
2019-04-01T13:30:01.509Z,58.21
2019-04-01T13:32:29.864Z,56.54
2019-04-01T13:34:58.251Z,56.64
2019-04-01T13:37:26.601Z,57.71
2019-04-01T13:39:55.876Z,56.97
2019-04-01T13:42:25.031Z,56.50
2019-04-01T13:44:53.649Z,56.93
2019-04-01T13:47:22.001Z,55.94
2019-04-01T13:49:50.392Z,57.44
2019-04-01T13:52:18.737Z,56.59
2019-04-01T13:54:47.202Z,56.59
2019-04-01T13:57:15.620Z,56.59
2019-04-01T13:59:49.531Z,56.84
2019-04-01T14:02:14.084Z,54.21
2019-04-01T14:04:42.473Z,56.16
2019-04-01T14:07:10.818Z,54.59
2019-04-01T14:09:39.200Z,55.53
2019-04-01T14:12:07.618Z,56.40
2019-04-01T14:14:36.054Z,56.80
2019-04-01T14:17:04.499Z,55.77
2019-04-01T14:19:32.886Z,56.67
2019-04-01T14:22:01.320Z,55.49
2019-04-01T14:24:29.870Z,55.49
2019-04-01T14:26:58.221Z,54.67
2019-04-01T14:29:26.675Z,52.50
2019-04-01T14:31:55.021Z,53.46
2019-04-01T14:34:23.876Z,54.45
2019-04-01T14:36:52.343Z,54.37
2019-04-01T14:39:20.736Z,53.94
2019-04-01T14:41:49.113Z,52.48
2019-04-01T14:44:17.554Z,52.67
2019-04-01T14:46:46.045Z,53.49
2019-04-01T14:49:14.440Z,51.97
2019-04-01T14:51:42.857Z,52.98
2019-04-01T14:54:11.260Z,52.08
2019-04-01T14:56:39.610Z,53.44
2019-04-01T14:59:08.060Z,52.20
2019-04-01T15:01:36.409Z,52.79
2019-04-01T15:04:04.873Z,52.28
2019-04-01T15:06:33.292Z,51.28
2019-04-01T15:09:01.641Z,51.44
2019-04-01T15:11:30.030Z,52.21
2019-04-01T15:14:00.042Z,51.17
2019-04-01T15:16:28.474Z,50.65
2019-04-01T15:18:56.825Z,51.80
2019-04-01T15:21:25.202Z,50.66
2019-04-01T15:23:53.584Z,50.58
2019-04-01T15:26:21.935Z,51.56
2019-04-01T15:28:50.287Z,50.10
2019-04-01T15:31:18.658Z,50.66
2019-04-01T15:33:47.011Z,51.39
2019-04-01T15:36:15.398Z,51.89
2019-04-01T15:38:43.756Z,51.65
2019-04-01T15:41:12.188Z,50.07
2019-04-01T15:43:41.038Z,50.76
2019-04-01T15:46:09.766Z,50.57
2019-04-01T15:48:38.116Z,50.82
2019-04-01T15:51:07.716Z,51.68
2019-04-01T15:53:36.342Z,52.03
2019-04-01T15:56:04.871Z,50.86
2019-04-01T15:58:33.229Z,50.05
2019-04-01T16:01:01.688Z,48.91
2019-04-01T16:03:30.042Z,49.36
2019-04-01T16:06:00.407Z,48.92
2019-04-01T16:08:29.129Z,49.17
2019-04-01T16:10:59.773Z,50.29
2019-04-01T16:13:31.648Z,49.98
2019-04-01T16:16:02.459Z,50.79
2019-04-01T16:18:31.168Z,50.57
2019-04-01T16:21:00.493Z,51.18
2019-04-01T16:23:29.077Z,50.94
2019-04-01T16:25:59.269Z,51.60
2019-04-01T16:28:29.764Z,51.37
2019-04-01T16:31:00.319Z,51.24
2019-04-01T16:33:30.922Z,51.89
2019-04-01T16:36:01.342Z,51.75
2019-04-01T16:38:30.578Z,52.40
2019-04-01T16:40:59.572Z,50.29
2019-04-01T16:43:28.313Z,51.04
2019-04-01T16:45:57.007Z,51.00
2019-04-01T16:48:25.807Z,50.99
2019-04-01T16:50:54.621Z,51.12
2019-04-01T16:53:23.303Z,51.19
2019-04-01T16:55:51.651Z,51.00
2019-04-01T16:58:20.052Z,52.01
2019-04-01T17:00:49.131Z,52.52
2019-04-01T17:03:19.379Z,52.31
2019-04-01T17:05:48.114Z,52.44
2019-04-01T17:08:22.022Z,52.45
2019-04-01T17:10:50.961Z,52.21
2019-04-01T17:13:19.909Z,53.01
2019-04-01T17:15:49.128Z,52.78
2019-04-01T17:18:20.898Z,52.83
2019-04-01T17:20:49.251Z,53.37
2019-04-01T17:23:17.715Z,52.79
2019-04-01T17:25:46.142Z,52.72
2019-04-01T17:28:14.530Z,52.90
2019-04-01T17:30:42.952Z,53.56
2019-04-01T17:33:11.415Z,53.45
2019-04-01T17:35:39.820Z,54.04
2019-04-01T17:38:08.277Z,53.87
2019-04-01T17:40:36.696Z,53.52
2019-04-01T17:43:05.141Z,53.83
2019-04-01T17:45:36.008Z,53.83
2019-04-01T17:48:05.160Z,54.06
2019-04-01T17:50:33.720Z,54.15
2019-04-01T17:53:02.444Z,54.48
2019-04-01T17:55:30.900Z,54.56
2019-04-01T17:57:59.284Z,54.50
2019-04-01T18:00:29.344Z,54.84
2019-04-01T18:02:57.977Z,55.33
2019-04-01T18:05:26.863Z,55.48
2019-04-01T18:07:55.311Z,55.73
2019-04-01T18:10:23.733Z,56.60
2019-04-01T18:12:52.824Z,56.32
2019-04-01T18:15:22.892Z,56.71
2019-04-01T18:17:53.241Z,56.92
2019-04-01T18:20:21.674Z,56.90
2019-04-01T18:22:50.053Z,57.15
2019-04-01T18:25:18.844Z,57.39
2019-04-01T18:27:47.233Z,57.58
2019-04-01T18:30:17.711Z,57.83
2019-04-01T18:32:46.281Z,57.84
2019-04-01T18:35:14.731Z,57.84
2019-04-01T18:37:43.074Z,57.90
2019-04-01T18:40:11.996Z,57.91
2019-04-01T18:42:40.620Z,58.35
2019-04-01T18:45:11.890Z,58.16
2019-04-01T18:47:40.396Z,58.53
2019-04-01T18:50:08.827Z,58.61
2019-04-01T18:52:38.227Z,58.94
2019-04-01T18:55:08.031Z,59.49
2019-04-01T18:57:36.613Z,59.47
2019-04-01T19:00:08.376Z,59.50
2019-04-01T19:02:36.942Z,59.45
2019-04-01T19:05:06.038Z,59.56
2019-04-01T19:07:35.493Z,60.03
2019-04-01T19:10:06.916Z,59.98
2019-04-01T19:12:36.136Z,59.67
2019-04-01T19:15:09.955Z,59.74
2019-04-01T19:17:37.609Z,59.32
2019-04-01T19:20:08.997Z,59.67
2019-04-01T19:22:37.405Z,59.40
2019-04-01T19:25:07.528Z,59.42
2019-04-01T19:27:36.274Z,59.16
2019-04-01T19:30:06.632Z,59.24
2019-04-01T19:32:35.357Z,59.67
2019-04-01T19:35:05.091Z,60.57
2019-04-01T19:37:34.071Z,61.00
2019-04-01T19:40:02.603Z,61.23
2019-04-01T19:42:31.148Z,61.75
2019-04-01T19:44:59.570Z,62.76
2019-04-01T19:47:27.997Z,63.30
2019-04-01T19:49:56.428Z,63.26
2019-04-01T19:52:25.355Z,63.09
2019-04-01T19:54:55.250Z,63.63
2019-04-01T19:57:23.598Z,63.89
2019-04-01T19:59:57.010Z,63.71
2019-04-01T20:02:27.857Z,63.69
2019-04-01T20:04:59.631Z,63.61
2019-04-01T20:07:33.559Z,63.73
2019-04-01T20:12:51.475Z,64.32
2019-04-01T20:15:23.361Z,64.54
2019-04-01T20:17:52.139Z,64.33
2019-04-01T20:20:22.792Z,64.36
2019-04-01T20:22:59.385Z,64.44
2019-04-01T20:25:29.553Z,64.82
2019-04-01T20:27:59.104Z,65.28
2019-04-01T20:30:34.331Z,65.61
2019-04-01T20:33:16.825Z,65.71
2019-04-01T20:35:35.061Z,65.55
2019-04-01T20:38:05.877Z,65.85
2019-04-01T20:40:34.380Z,65.12
2019-04-01T20:43:03.166Z,65.69
2019-04-01T20:45:31.752Z,65.67
2019-04-01T20:48:00.171Z,65.63
2019-04-01T20:50:28.830Z,65.59
2019-04-01T20:52:57.349Z,66.15
2019-04-01T20:55:26.427Z,67.50
2019-04-01T20:57:55.174Z,67.39
2019-04-01T21:00:24.193Z,68.06
2019-04-01T21:02:53.250Z,69.54
2019-04-01T21:05:21.955Z,69.24
2019-04-01T21:07:50.688Z,69.63
2019-04-01T21:10:19.651Z,70.88
2019-04-01T21:12:48.578Z,70.79
2019-04-01T21:15:18.544Z,70.92
2019-04-01T21:17:47.534Z,70.66
2019-04-01T21:20:16.090Z,71.62
2019-04-01T21:22:46.600Z,70.76
2019-04-01T21:25:15.198Z,70.39
2019-04-01T21:27:44.614Z,71.22
2019-04-01T21:30:13.299Z,71.78
2019-04-01T21:32:41.674Z,71.97
2019-04-01T21:35:10.268Z,72.39
2019-04-01T21:37:38.729Z,72.26
2019-04-01T21:40:08.689Z,72.51
2019-04-01T21:42:37.436Z,72.55
2019-04-01T21:45:09.506Z,71.85
2019-04-01T21:47:37.884Z,72.19
2019-04-01T21:50:07.367Z,72.59
2019-04-01T21:52:35.743Z,71.60
2019-04-01T21:55:08.193Z,72.25
2019-04-01T21:57:36.983Z,71.84
2019-04-01T22:00:08.962Z,71.84
2019-04-01T22:02:38.265Z,71.64
2019-04-01T22:05:10.193Z,72.40
2019-04-01T22:07:38.715Z,72.62
2019-04-01T22:10:07.735Z,72.96
2019-04-01T22:12:36.668Z,72.72
2019-04-01T22:15:06.165Z,72.71
2019-04-01T22:17:34.669Z,73.01
2019-04-01T22:20:03.450Z,72.19
2019-04-01T22:22:32.843Z,73.79
2019-04-01T22:25:01.714Z,73.50
2019-04-01T22:27:30.805Z,73.37
2019-04-01T22:29:59.258Z,73.47
2019-04-01T22:32:27.821Z,73.24
2019-04-01T22:34:56.746Z,72.18
2019-04-01T22:37:28.328Z,72.30
2019-04-01T22:39:57.069Z,73.45
2019-04-01T22:42:29.915Z,74.33
2019-04-01T22:45:00.952Z,74.14
2019-04-01T22:47:29.657Z,74.87
2019-04-01T22:49:58.713Z,74.70
2019-04-01T22:52:27.340Z,73.39
2019-04-01T22:54:56.955Z,73.14
2019-04-01T22:57:25.670Z,72.96
2019-04-01T22:59:55.761Z,72.26
2019-04-01T23:02:24.420Z,72.57
2019-04-01T23:04:56.355Z,72.15
2019-04-01T23:07:25.889Z,73.92
2019-04-01T23:09:54.413Z,73.28
2019-04-01T23:12:25.426Z,73.41
2019-04-01T23:14:53.980Z,73.92
2019-04-01T23:17:22.332Z,74.20
2019-04-01T23:19:50.738Z,73.91
2019-04-01T23:22:23.205Z,74.33
2019-04-01T23:24:51.012Z,75.15
2019-04-01T23:27:19.436Z,75.54
2019-04-01T23:29:47.833Z,74.85
2019-04-01T23:32:16.739Z,74.77
2019-04-01T23:34:45.203Z,74.62
2019-04-01T23:37:13.615Z,75.67
2019-04-01T23:39:42.073Z,76.51
2019-04-01T23:42:10.724Z,76.18
2019-04-01T23:44:39.232Z,75.13
2019-04-01T23:47:10.659Z,74.56
2019-04-01T23:49:40.438Z,75.24
2019-04-01T23:52:09.179Z,74.45
2019-04-01T23:54:40.061Z,74.30
2019-04-01T23:57:08.477Z,74.52
2019-04-01T23:59:36.863Z,73.58
